createdAt,value
2019-01-28T00:00:06.145Z,21.20
2019-01-28T00:03:08.570Z,20.70
2019-01-28T00:06:11.091Z,24.13
2019-01-28T00:09:13.053Z,24.47
2019-01-28T00:12:15.075Z,26.00
2019-01-28T00:15:20.121Z,22.63
2019-01-28T00:18:27.030Z,28.00
2019-01-28T00:21:29.130Z,38.47
2019-01-28T00:24:34.228Z,20.40
2019-01-28T00:27:38.074Z,30.60
2019-01-28T00:30:42.828Z,18.80
2019-01-28T00:33:44.863Z,17.00
2019-01-28T00:36:46.966Z,16.27
2019-01-28T00:39:49.225Z,19.77
2019-01-28T00:42:51.280Z,17.53
2019-01-28T00:45:54.616Z,21.63
2019-01-28T00:48:56.625Z,30.43
2019-01-28T00:51:58.620Z,17.63
2019-01-28T00:55:02.120Z,19.20
2019-01-28T00:58:04.146Z,20.53
2019-01-28T01:01:06.403Z,13.50
2019-01-28T01:04:09.871Z,21.17
2019-01-28T01:07:11.890Z,22.00
2019-01-28T01:10:13.893Z,21.07
2019-01-28T01:13:18.966Z,14.07
2019-01-28T01:16:21.207Z,21.37
2019-01-28T01:19:23.231Z,12.50
2019-01-28T01:22:26.536Z,18.70
2019-01-28T01:25:28.725Z,11.53
2019-01-28T01:28:30.721Z,13.07
2019-01-28T01:31:34.280Z,14.33
2019-01-28T01:34:36.368Z,12.93
2019-01-28T01:37:42.784Z,12.40
2019-01-28T01:40:44.793Z,10.77
2019-01-28T01:43:46.907Z,15.90
2019-01-28T01:46:54.420Z,11.33
2019-01-28T01:49:56.438Z,8.13
2019-01-28T01:52:59.910Z,13.37
2019-01-28T01:56:07.452Z,13.97
2019-01-28T01:59:11.505Z,14.80
2019-01-28T02:02:13.505Z,17.13
2019-01-28T02:05:18.121Z,12.83
2019-01-28T02:08:20.139Z,19.83
2019-01-28T02:11:22.178Z,12.67
2019-01-28T02:14:26.633Z,16.33
2019-01-28T02:17:29.852Z,14.87
2019-01-28T02:20:32.115Z,18.07
2019-01-28T02:23:35.972Z,16.87
2019-01-28T02:26:38.023Z,17.10
2019-01-28T02:29:40.024Z,15.47
2019-01-28T02:32:42.123Z,14.63
2019-01-28T02:35:45.651Z,12.87
2019-01-28T02:38:51.602Z,17.10
2019-01-28T02:41:53.640Z,12.40
2019-01-28T02:44:55.880Z,15.63
2019-01-28T02:48:00.892Z,17.97
2019-01-28T02:51:03.222Z,19.70
2019-01-28T02:54:05.715Z,19.67
2019-01-28T02:57:12.308Z,19.23
2019-01-28T03:03:47.384Z,18.23
2019-01-28T03:06:49.388Z,18.20
2019-01-28T03:09:51.421Z,11.77
2019-01-28T03:12:53.683Z,7.63
2019-01-28T03:15:55.715Z,16.73
2019-01-28T03:19:01.203Z,15.57
2019-01-28T03:22:05.600Z,10.83
2019-01-28T03:25:09.722Z,10.50
2019-01-28T03:28:11.722Z,16.30
2019-01-28T03:31:13.614Z,11.43
2019-01-28T03:34:15.646Z,15.80
2019-01-28T03:37:17.663Z,16.03
2019-01-28T03:40:19.705Z,17.40
2019-01-28T03:43:22.823Z,14.10
2019-01-28T03:46:24.828Z,14.17
2019-01-28T03:49:26.823Z,24.00
2019-01-28T03:52:29.014Z,18.00
2019-01-28T03:55:30.986Z,22.50
2019-01-28T03:58:33.038Z,19.60
2019-01-28T04:01:35.116Z,21.90
2019-01-28T04:04:37.377Z,26.63
2019-01-28T04:07:39.357Z,14.43
2019-01-28T04:10:41.364Z,17.97
2019-01-28T04:13:43.634Z,17.37
2019-01-28T04:16:45.639Z,19.03
2019-01-28T04:19:47.650Z,24.10
2019-01-28T04:22:49.802Z,24.60
2019-01-28T04:25:54.298Z,19.90
2019-01-28T04:28:56.317Z,21.67
2019-01-28T04:31:59.670Z,11.90
2019-01-28T04:35:02.444Z,23.07
2019-01-28T04:38:04.553Z,16.83
2019-01-28T04:41:06.579Z,18.67
2019-01-28T04:44:11.288Z,13.80
2019-01-28T04:47:13.332Z,17.13
2019-01-28T04:50:16.921Z,11.63
2019-01-28T04:53:19.420Z,16.80
2019-01-28T04:56:21.411Z,14.43
2019-01-28T04:59:23.447Z,13.27
2019-01-28T05:02:25.491Z,17.10
2019-01-28T05:05:27.499Z,21.27
2019-01-28T05:08:29.520Z,12.80
2019-01-28T05:11:31.748Z,15.07
2019-01-28T05:14:36.910Z,19.13
2019-01-28T05:17:38.963Z,14.40
2019-01-28T05:20:43.687Z,13.50
2019-01-28T05:23:45.859Z,18.17
2019-01-28T05:26:47.880Z,17.10
2019-01-28T05:29:51.020Z,14.20
2019-01-28T05:32:53.291Z,20.30
2019-01-28T05:35:55.354Z,12.43
2019-01-28T05:39:06.326Z,7.20
2019-01-28T05:42:08.365Z,22.37
2019-01-28T05:45:12.349Z,15.93
2019-01-28T05:48:14.360Z,14.50
2019-01-28T05:51:16.367Z,20.67
2019-01-28T05:54:19.666Z,16.33
2019-01-28T05:57:21.661Z,18.67
2019-01-28T06:00:34.352Z,21.33
2019-01-28T06:03:36.392Z,16.33
2019-01-28T06:06:38.409Z,27.37
2019-01-28T06:09:40.388Z,14.47
2019-01-28T06:12:44.932Z,12.10
2019-01-28T06:15:46.942Z,18.33
2019-01-28T06:18:51.211Z,10.60
2019-01-28T06:21:53.287Z,20.20
2019-01-28T06:24:56.707Z,13.27
2019-01-28T06:27:59.813Z,16.83
2019-01-28T06:31:01.811Z,19.10
2019-01-28T06:34:04.007Z,17.47
2019-01-28T06:37:07.557Z,18.37
2019-01-28T06:40:12.099Z,20.63
2019-01-28T06:43:14.250Z,21.83
2019-01-28T06:46:16.284Z,26.37
2019-01-28T06:49:18.293Z,15.60
2019-01-28T06:52:20.508Z,19.27
2019-01-28T06:55:22.486Z,23.83
2019-01-28T06:58:24.582Z,30.60
2019-01-28T07:01:28.415Z,11.87
2019-01-28T07:04:31.927Z,16.83
2019-01-28T07:07:35.192Z,22.37
2019-01-28T07:10:44.460Z,25.47
2019-01-28T07:13:46.710Z,17.70
2019-01-28T07:16:48.722Z,18.03
2019-01-28T07:19:51.104Z,20.90
2019-01-28T07:22:53.276Z,21.60
2019-01-28T07:25:55.300Z,17.77
2019-01-28T07:29:07.884Z,17.73
2019-01-28T07:32:21.236Z,21.00
2019-01-28T07:35:25.329Z,19.07
2019-01-28T07:38:27.470Z,16.20
2019-01-28T07:41:29.501Z,14.20
2019-01-28T07:44:31.849Z,24.50
2019-01-28T07:47:36.685Z,23.43
2019-01-28T07:50:41.061Z,19.93
2019-01-28T07:53:44.063Z,25.07
2019-01-28T07:56:47.079Z,15.63
2019-01-28T07:59:49.198Z,21.57
2019-01-28T08:02:51.206Z,18.23
2019-01-28T08:05:53.408Z,26.33
2019-01-28T08:08:57.486Z,24.07
2019-01-28T08:11:59.510Z,20.20
2019-01-28T08:15:06.207Z,15.90
2019-01-28T08:18:10.855Z,21.60
2019-01-28T08:21:12.095Z,16.40
2019-01-28T08:24:14.126Z,16.83
2019-01-28T08:27:18.189Z,21.67
2019-01-28T08:30:22.739Z,16.77
2019-01-28T08:33:24.940Z,14.37
2019-01-28T08:36:26.966Z,18.43
2019-01-28T08:39:28.964Z,17.63
2019-01-28T08:42:32.057Z,21.97
2019-01-28T08:45:34.066Z,14.97
2019-01-28T08:48:36.065Z,20.73
2019-01-28T08:51:38.113Z,27.80
2019-01-28T08:54:42.272Z,11.67
2019-01-28T08:57:44.295Z,19.13
2019-01-28T09:00:46.322Z,18.83
2019-01-28T09:03:51.137Z,14.00
2019-01-28T09:06:53.128Z,20.03
2019-01-28T09:09:55.173Z,13.13
2019-01-28T09:12:57.445Z,15.63
2019-01-28T09:16:01.273Z,19.33
2019-01-28T09:19:03.293Z,14.27
2019-01-28T09:22:05.273Z,16.77
2019-01-28T09:25:09.796Z,12.07
2019-01-28T09:28:11.875Z,13.33
2019-01-28T09:31:13.865Z,13.60
2019-01-28T09:34:17.277Z,13.57
2019-01-28T09:37:22.503Z,10.20
2019-01-28T09:40:25.642Z,7.80
2019-01-28T09:43:33.043Z,11.83
2019-01-28T09:46:39.644Z,8.13
2019-01-28T09:49:48.651Z,11.20
2019-01-28T09:52:51.123Z,17.03
2019-01-28T09:55:53.135Z,14.43
2019-01-28T09:58:57.542Z,8.83
2019-01-28T10:02:00.097Z,9.07
2019-01-28T10:05:02.210Z,10.10
2019-01-28T10:08:04.515Z,22.37
2019-01-28T10:14:25.478Z,16.93
2019-01-28T10:17:27.491Z,26.07
2019-01-28T10:20:46.041Z,20.07
2019-01-28T10:23:48.676Z,23.43
2019-01-28T10:26:50.825Z,21.97
2019-01-28T10:29:54.071Z,21.63
2019-01-28T10:32:56.397Z,23.67
2019-01-28T10:35:58.422Z,17.40
2019-01-28T10:39:00.429Z,19.13
2019-01-28T10:42:09.669Z,21.77
2019-01-28T10:45:09.330Z,22.43
2019-01-28T10:48:11.561Z,22.93
2019-01-28T10:51:15.738Z,16.53
2019-01-28T10:54:19.585Z,20.77
2019-01-28T10:57:23.733Z,19.30
2019-01-28T11:00:49.134Z,20.13
2019-01-28T11:03:51.208Z,20.73
2019-01-28T11:06:53.193Z,14.93
2019-01-28T11:09:57.602Z,14.40
2019-01-28T11:13:01.870Z,18.87
2019-01-28T11:16:05.000Z,17.20
2019-01-28T11:19:07.097Z,15.23
2019-01-28T11:22:09.207Z,16.70
2019-01-28T11:25:13.704Z,13.00
2019-01-28T11:28:15.829Z,10.30
2019-01-28T11:31:17.960Z,17.00
2019-01-28T11:34:20.474Z,20.07
2019-01-28T11:37:22.460Z,16.73
2019-01-28T11:40:24.486Z,20.13
2019-01-28T11:43:26.898Z,17.73
2019-01-28T11:46:29.090Z,17.57
2019-01-28T11:49:31.420Z,13.63
2019-01-28T11:52:33.619Z,15.30
2019-01-28T11:55:35.630Z,16.83
2019-01-28T11:58:37.776Z,33.57
2019-01-28T12:01:48.804Z,27.20
2019-01-28T12:04:50.876Z,14.83
2019-01-28T12:07:55.910Z,14.27
2019-01-28T12:10:58.049Z,14.27
2019-01-28T12:14:00.054Z,21.07
2019-01-28T12:17:03.492Z,21.07
2019-01-28T12:20:09.257Z,22.40
2019-01-28T12:23:11.361Z,15.60
2019-01-28T12:26:15.506Z,18.30
2019-01-28T12:29:17.818Z,15.87
2019-01-28T12:32:21.292Z,13.93
2019-01-28T12:35:25.948Z,15.00
2019-01-28T12:38:30.022Z,14.20
2019-01-28T12:41:32.081Z,18.50
2019-01-28T12:44:35.485Z,16.50
2019-01-28T12:47:37.498Z,14.13
2019-01-28T12:50:39.539Z,13.33
2019-01-28T12:53:41.747Z,16.83
2019-01-28T12:56:43.845Z,15.23
2019-01-28T12:59:45.781Z,14.77
2019-01-28T13:02:47.824Z,19.63
2019-01-28T13:05:49.859Z,15.43
2019-01-28T13:08:54.003Z,15.23
2019-01-28T13:11:56.168Z,12.27
2019-01-28T13:14:58.464Z,13.63
2019-01-28T13:18:00.591Z,20.17
2019-01-28T13:21:05.533Z,18.37
2019-01-28T13:24:08.760Z,8.87
2019-01-28T13:27:13.854Z,11.90
2019-01-28T13:30:19.708Z,10.43
2019-01-28T13:33:23.677Z,11.87
2019-01-28T13:36:26.175Z,10.23
2019-01-28T13:39:28.227Z,9.90
2019-01-28T13:42:30.554Z,15.53
2019-01-28T13:45:32.593Z,17.73
2019-01-28T13:48:36.501Z,13.67
2019-01-28T13:51:39.830Z,16.27
2019-01-28T13:54:41.925Z,6.53
2019-01-28T13:57:43.963Z,12.40
2019-01-28T14:00:48.755Z,11.93
2019-01-28T14:03:53.558Z,11.80
2019-01-28T14:06:58.129Z,14.60
2019-01-28T14:10:00.225Z,13.60
2019-01-28T14:13:04.114Z,18.40
2019-01-28T14:16:06.124Z,11.37
2019-01-28T14:19:08.377Z,17.47
2019-01-28T14:22:10.753Z,18.63
2019-01-28T14:25:13.762Z,16.73
2019-01-28T14:28:15.834Z,15.57
2019-01-28T14:31:19.677Z,15.43
2019-01-28T14:34:21.973Z,9.73
2019-01-28T14:37:32.158Z,7.17
2019-01-28T14:40:38.260Z,8.17
2019-01-28T14:43:43.227Z,13.03
2019-01-28T14:46:45.387Z,10.07
2019-01-28T14:49:54.412Z,8.00
2019-01-28T14:52:51.475Z,11.57
2019-01-28T14:55:53.516Z,14.03
2019-01-28T14:58:57.326Z,12.77
2019-01-28T15:01:59.314Z,12.20
2019-01-28T15:05:01.432Z,6.57
2019-01-28T15:08:05.046Z,13.10
2019-01-28T15:11:07.100Z,12.53
2019-01-28T15:14:09.441Z,11.03
2019-01-28T15:17:11.514Z,11.77
2019-01-28T15:20:16.447Z,10.10
2019-01-28T15:23:18.713Z,8.90
2019-01-28T15:26:20.748Z,7.40
2019-01-28T15:29:22.894Z,10.53
2019-01-28T15:32:25.360Z,7.53
2019-01-28T15:35:27.364Z,8.17
2019-01-28T15:38:29.419Z,10.27
2019-01-28T15:41:36.084Z,9.00
2019-01-28T15:44:40.723Z,9.77
2019-01-28T15:47:45.549Z,11.10
2019-01-28T15:50:47.622Z,6.73
2019-01-28T15:53:50.228Z,8.10
2019-01-28T15:56:52.271Z,11.13
2019-01-28T15:59:54.274Z,10.77
2019-01-28T16:02:59.675Z,7.87
2019-01-28T16:06:01.734Z,9.80
2019-01-28T16:09:07.205Z,10.27
2019-01-28T16:12:09.774Z,13.77
2019-01-28T16:15:24.487Z,11.77
2019-01-28T16:18:34.268Z,15.87
2019-01-28T16:21:30.730Z,11.87
2019-01-28T16:24:33.095Z,18.30
2019-01-28T16:27:35.256Z,11.13
2019-01-28T16:30:38.640Z,12.90
2019-01-28T16:33:43.264Z,13.33
2019-01-28T16:36:45.377Z,11.80
2019-01-28T16:39:47.427Z,9.40
2019-01-28T16:42:53.571Z,13.30
2019-01-28T16:45:55.631Z,4.87
2019-01-28T16:49:00.057Z,3.50
2019-01-28T16:52:02.148Z,3.17
2019-01-28T16:55:04.727Z,6.37
2019-01-28T16:58:06.785Z,6.27
2019-01-28T17:01:08.868Z,4.17
2019-01-28T17:04:11.210Z,6.03
2019-01-28T17:07:15.192Z,5.20
2019-01-28T17:10:17.240Z,14.57
2019-01-28T17:13:19.286Z,9.73
2019-01-28T17:16:23.855Z,9.33
2019-01-28T17:23:19.370Z,7.37
2019-01-28T17:28:21.456Z,8.90
2019-01-28T17:33:23.595Z,12.47
2019-01-28T17:38:28.689Z,16.87
2019-01-28T17:43:30.904Z,11.47
2019-01-28T17:48:32.976Z,11.33
2019-01-28T17:53:35.304Z,16.77
2019-01-28T17:58:37.984Z,11.83
2019-01-28T18:03:43.532Z,19.00
2019-01-28T18:08:45.555Z,18.13
2019-01-28T18:13:47.607Z,20.13
2019-01-28T18:18:49.667Z,14.40
2019-01-28T18:23:53.283Z,22.57
2019-01-28T18:28:55.367Z,23.07
2019-01-28T18:33:58.818Z,16.17
2019-01-28T18:39:01.002Z,29.50
2019-01-28T18:44:04.128Z,22.67
2019-01-28T18:49:06.177Z,17.87
2019-01-28T18:54:08.256Z,20.60
2019-01-28T18:59:10.269Z,23.00
2019-01-28T19:04:14.644Z,23.87
2019-01-28T19:09:31.388Z,24.57
2019-01-28T19:14:51.769Z,22.13
2019-01-28T19:20:12.004Z,20.20
2019-01-28T19:25:14.137Z,16.63
2019-01-28T19:30:18.075Z,23.37
2019-01-28T19:35:20.170Z,17.77
2019-01-28T19:40:25.285Z,13.50
2019-01-28T19:45:30.265Z,18.03
2019-01-28T19:50:35.053Z,20.20
2019-01-28T19:55:37.584Z,12.70
2019-01-28T20:00:58.388Z,29.23
2019-01-28T20:06:01.565Z,21.97
2019-01-28T20:11:03.592Z,17.23
2019-01-28T20:16:05.574Z,21.37
2019-01-28T20:21:08.987Z,23.73
2019-01-28T20:26:15.699Z,19.90
2019-01-28T20:31:20.042Z,22.80
2019-01-28T20:36:22.410Z,25.37
2019-01-28T20:41:24.441Z,25.20
2019-01-28T20:46:28.754Z,27.20
2019-01-28T20:51:32.419Z,31.87
2019-01-28T20:56:37.534Z,34.63
2019-01-28T21:01:43.653Z,22.67
2019-01-28T21:06:47.811Z,28.50
2019-01-28T21:11:53.535Z,25.97
2019-01-28T21:17:00.098Z,30.07
2019-01-28T21:22:03.829Z,20.10
2019-01-28T21:27:05.890Z,26.63
2019-01-28T21:32:08.166Z,20.87
2019-01-28T21:37:16.225Z,25.37
2019-01-28T21:42:18.275Z,33.70
2019-01-28T21:47:20.306Z,30.17
2019-01-28T21:52:22.489Z,23.07
2019-01-28T21:57:24.523Z,29.20
2019-01-28T22:02:26.765Z,27.77
2019-01-28T22:07:31.013Z,21.60
2019-01-28T22:12:38.182Z,32.47
2019-01-28T22:17:40.204Z,27.03
2019-01-28T22:22:42.410Z,35.77
2019-01-28T22:27:46.310Z,28.50
2019-01-28T22:32:48.490Z,24.80
2019-01-28T22:37:52.825Z,25.57
2019-01-28T22:42:54.831Z,33.17
2019-01-28T22:47:56.899Z,27.63
2019-01-28T22:52:59.479Z,29.00
2019-01-28T22:58:01.500Z,24.20
2019-01-28T23:03:03.943Z,21.53
2019-01-28T23:08:05.969Z,29.30
2019-01-28T23:13:08.349Z,25.23
2019-01-28T23:18:10.375Z,24.73
2019-01-28T23:23:12.592Z,11.60
2019-01-28T23:28:14.623Z,17.27
2019-01-28T23:33:21.509Z,17.20
2019-01-28T23:38:23.470Z,25.40
2019-01-28T23:43:26.210Z,12.37
2019-01-28T23:48:33.278Z,19.60
2019-01-28T23:53:35.526Z,11.87
2019-01-28T23:58:37.530Z,15.27
